Time;durP1;ratioP1;P1;durP2;ratioP2;P2;SDS_P1;SDS_P2;PMS_P1;PMS_P2;Temp;Humidity;BMP_temperature;BMP_pressure;BME280_temperature;BME280_humidity;BME280_pressure;Samples;Min_cycle;Max_cycle;Signal;HPM_P1;HPM_P2
2023/06/03 00:00:08;;;;;;;1.47;1.00;;;14.00;98.20;;;;;;5043156;28;20450;-82
2023/06/03 00:02:35;;;;;;;1.43;1.00;;;14.00;98.20;;;;;;5041534;28;20480;-81
2023/06/03 00:05:03;;;;;;;1.50;1.10;;;14.00;98.20;;;;;;5049629;28;20458;-82
2023/06/03 00:07:30;;;;;;;1.47;1.00;;;14.00;98.20;;;;;;5044555;28;20473;-82
2023/06/03 00:12:37;;;;;;;1.50;1.00;;;13.90;98.20;;;;;;5071756;28;20473;-77
2023/06/03 00:15:06;;;;;;;1.47;1.00;;;13.90;98.20;;;;;;5079654;28;20461;-81
2023/06/03 00:17:33;;;;;;;1.43;1.00;;;13.90;98.20;;;;;;5080898;28;20517;-83
2023/06/03 00:20:06;;;;;;;1.50;1.00;;;13.90;98.20;;;;;;5078523;28;20460;-77
2023/06/03 00:22:34;;;;;;;1.50;1.00;;;13.90;98.20;;;;;;5060574;28;20535;-80
2023/06/03 00:25:01;;;;;;;1.50;1.00;;;13.90;98.20;;;;;;5060298;28;20715;-80
2023/06/03 00:27:28;;;;;;;1.47;1.00;;;13.80;98.20;;;;;;5060184;28;20473;-79
2023/06/03 00:29:54;;;;;;;1.47;1.00;;;13.80;98.20;;;;;;5060436;28;20458;-81
2023/06/03 00:32:23;;;;;;;1.50;1.00;;;13.80;98.20;;;;;;5059184;28;20500;-83
2023/06/03 00:34:49;;;;;;;1.43;1.00;;;13.80;98.20;;;;;;5060380;28;20473;-80
2023/06/03 00:37:16;;;;;;;1.47;1.00;;;13.80;98.20;;;;;;5058600;28;20479;-80
2023/06/03 00:39:43;;;;;;;1.50;1.00;;;13.80;98.20;;;;;;5057594;28;20465;-81
2023/06/03 00:42:10;;;;;;;1.47;1.10;;;13.80;98.20;;;;;;5055322;28;20505;-82
2023/06/03 00:44:36;;;;;;;1.50;1.00;;;13.70;98.20;;;;;;5060098;28;20462;-82
2023/06/03 00:47:04;;;;;;;1.43;1.00;;;13.70;98.20;;;;;;5057070;28;20488;-83
2023/06/03 00:49:33;;;;;;;1.50;1.00;;;13.70;98.20;;;;;;5061359;28;20458;-81
2023/06/03 00:52:00;;;;;;;1.47;1.00;;;13.70;98.20;;;;;;5057168;28;20647;-83
2023/06/03 00:54:27;;;;;;;1.40;1.00;;;13.70;98.20;;;;;;5063758;28;20490;-79
2023/06/03 00:56:57;;;;;;;1.50;1.10;;;13.60;98.20;;;;;;5057155;28;20477;-79
2023/06/03 00:59:24;;;;;;;1.50;1.00;;;13.60;98.20;;;;;;5066974;28;20557;-82
2023/06/03 01:01:50;;;;;;;1.47;1.00;;;13.60;98.20;;;;;;5056775;28;20867;-82
2023/06/03 01:04:25;;;;;;;1.47;1.00;;;13.60;98.20;;;;;;5059738;28;21092;-82
2023/06/03 01:07:05;;;;;;;1.47;1.00;;;13.50;98.20;;;;;;5055399;28;20548;-80
2023/06/03 01:09:41;;;;;;;1.47;1.00;;;13.50;98.20;;;;;;5064216;28;20458;-82
2023/06/03 01:12:15;;;;;;;1.47;1.00;;;13.50;98.20;;;;;;5072586;28;20476;-82
2023/06/03 01:14:46;;;;;;;1.50;1.00;;;13.50;98.20;;;;;;5082686;28;20483;-80
2023/06/03 01:17:14;;;;;;;1.50;1.10;;;13.40;98.20;;;;;;5078413;28;20473;-83
2023/06/03 01:19:48;;;;;;;1.47;1.10;;;13.40;98.20;;;;;;5083892;28;20552;-79
2023/06/03 01:22:17;;;;;;;1.50;1.07;;;13.40;98.20;;;;;;5078774;28;20533;-82
2023/06/03 01:24:46;;;;;;;1.50;1.00;;;13.40;98.20;;;;;;5075861;28;20971;-80
2023/06/03 01:27:13;;;;;;;1.47;1.00;;;13.30;98.20;;;;;;5069903;28;20501;-79
2023/06/03 01:29:43;;;;;;;1.50;1.10;;;13.30;98.20;;;;;;5084985;28;20458;-82
2023/06/03 01:32:12;;;;;;;1.50;1.03;;;13.30;98.20;;;;;;5080431;28;20480;-83
2023/06/03 01:34:40;;;;;;;1.47;1.00;;;13.30;98.20;;;;;;5082641;28;20458;-83
2023/06/03 01:37:08;;;;;;;1.50;1.00;;;13.20;98.20;;;;;;5080932;28;20481;-81
2023/06/03 01:39:37;;;;;;;1.50;1.00;;;13.20;98.20;;;;;;5085909;28;20457;-82
2023/06/03 01:42:06;;;;;;;1.50;1.00;;;13.10;98.20;;;;;;5070164;28;20537;-81
2023/06/03 01:44:33;;;;;;;1.50;1.00;;;13.10;98.20;;;;;;5082866;28;20461;-85
2023/06/03 01:47:00;;;;;;;1.40;1.00;;;13.10;98.20;;;;;;5079290;28;20472;-82
2023/06/03 01:49:31;;;;;;;1.50;1.10;;;13.00;98.20;;;;;;5085484;28;20449;-83
2023/06/03 01:51:57;;;;;;;1.50;1.10;;;13.00;98.20;;;;;;5078543;28;20481;-83
2023/06/03 01:54:25;;;;;;;1.47;1.00;;;13.00;98.20;;;;;;5083437;28;20457;-82
2023/06/03 01:56:52;;;;;;;1.50;1.17;;;12.90;98.20;;;;;;5077800;28;20489;-83
2023/06/03 01:59:22;;;;;;;1.50;1.10;;;12.90;98.20;;;;;;5086443;28;20461;-82
2023/06/03 02:01:49;;;;;;;1.47;1.07;;;12.90;98.20;;;;;;5073749;28;20555;-82
2023/06/03 02:04:16;;;;;;;1.50;1.00;;;12.90;98.20;;;;;;5086097;28;20453;-83
2023/06/03 02:06:48;;;;;;;1.50;1.00;;;12.90;98.20;;;;;;5076140;28;20476;-82
2023/06/03 02:09:15;;;;;;;1.50;1.10;;;12.90;98.20;;;;;;5087347;28;20854;-82
2023/06/03 02:11:43;;;;;;;1.50;1.00;;;12.90;98.20;;;;;;5074734;28;20481;-84
2023/06/03 02:14:10;;;;;;;1.50;1.00;;;12.80;98.20;;;;;;5083739;28;20457;-82
2023/06/03 02:16:40;;;;;;;1.47;1.00;;;12.80;98.20;;;;;;5073698;28;20518;-82
2023/06/03 02:19:12;;;;;;;1.50;1.00;;;12.80;98.20;;;;;;5084345;28;20477;-84
2023/06/03 02:21:40;;;;;;;1.47;1.00;;;12.80;98.20;;;;;;5071885;28;20484;-81
2023/06/03 02:24:07;;;;;;;1.50;1.07;;;12.80;98.20;;;;;;5086836;28;20950;-84
2023/06/03 02:26:34;;;;;;;1.50;1.00;;;12.80;98.20;;;;;;5074448;28;20480;-83
2023/06/03 02:29:01;;;;;;;1.63;1.47;;;12.80;98.20;;;;;;5087527;28;21055;-81
2023/06/03 02:31:28;;;;;;;1.50;1.00;;;12.80;98.20;;;;;;5073335;28;20541;-81
2023/06/03 02:33:56;;;;;;;1.47;1.00;;;12.80;98.20;;;;;;5087703;28;20465;-83
2023/06/03 02:36:23;;;;;;;1.50;1.10;;;12.80;98.20;;;;;;5071945;28;20794;-81
2023/06/03 02:38:50;;;;;;;1.50;1.00;;;12.70;98.20;;;;;;5085424;28;20468;-80
2023/06/03 02:41:16;;;;;;;1.50;1.00;;;12.70;98.20;;;;;;5069688;28;20492;-80
2023/06/03 02:43:43;;;;;;;1.50;1.13;;;12.70;98.20;;;;;;5090307;28;20992;-80
2023/06/03 02:46:10;;;;;;;1.50;1.10;;;12.70;98.20;;;;;;5070213;28;20483;-81
2023/06/03 02:48:37;;;;;;;1.50;1.10;;;12.60;98.20;;;;;;5090724;28;20667;-82
2023/06/03 02:51:05;;;;;;;1.47;1.00;;;12.60;98.20;;;;;;5065953;28;20572;-82
2023/06/03 02:53:33;;;;;;;1.47;1.00;;;12.60;98.20;;;;;;5088881;28;20564;-81
2023/06/03 02:56:00;;;;;;;1.50;1.13;;;12.60;98.20;;;;;;5068288;28;20484;-80
2023/06/03 02:58:27;;;;;;;1.50;1.10;;;12.60;98.20;;;;;;5091913;28;20464;-81
2023/06/03 03:00:54;;;;;;;1.50;1.10;;;12.50;98.20;;;;;;5068841;28;20480;-81
2023/06/03 03:03:20;;;;;;;1.50;1.10;;;12.50;98.20;;;;;;5093176;28;20544;-83
2023/06/03 03:05:48;;;;;;;1.50;1.10;;;12.50;98.20;;;;;;5076121;28;20457;-82
2023/06/03 03:08:16;;;;;;;1.50;1.10;;;12.50;98.20;;;;;;5094760;28;20462;-88
2023/06/03 03:10:43;;;;;;;1.50;1.13;;;12.40;98.20;;;;;;5076878;28;20496;-82
2023/06/03 03:13:10;;;;;;;1.50;1.07;;;12.40;98.20;;;;;;5080884;28;20485;-80
2023/06/03 03:15:36;;;;;;;1.47;1.00;;;12.30;98.20;;;;;;5079400;28;20514;-85
2023/06/03 03:18:03;;;;;;;1.50;1.10;;;12.30;98.20;;;;;;5080390;28;20468;-83
2023/06/03 03:20:30;;;;;;;1.50;1.10;;;12.30;98.20;;;;;;5080122;28;20492;-83
2023/06/03 03:22:57;;;;;;;1.50;1.10;;;12.30;98.20;;;;;;5083891;28;20476;-82
2023/06/03 03:25:26;;;;;;;1.50;1.10;;;12.30;98.20;;;;;;5078140;28;20484;-79
2023/06/03 03:27:53;;;;;;;1.47;1.07;;;12.20;98.20;;;;;;5080885;28;20567;-82
2023/06/03 03:30:20;;;;;;;1.50;1.10;;;12.30;98.20;;;;;;5079053;28;20833;-82
2023/06/03 03:32:47;;;;;;;1.47;1.10;;;12.20;98.20;;;;;;5081043;28;20484;-85
2023/06/03 03:35:15;;;;;;;1.47;1.10;;;12.20;98.20;;;;;;5071283;28;20462;-83
2023/06/03 03:37:43;;;;;;;1.50;1.17;;;12.20;98.20;;;;;;5072109;28;20477;-79
2023/06/03 03:40:17;;;;;;;1.47;1.10;;;12.20;98.20;;;;;;5076211;28;20454;-82
2023/06/03 03:42:49;;;;;;;1.50;1.20;;;12.20;98.20;;;;;;5076203;28;20472;-80
2023/06/03 03:45:18;;;;;;;1.50;1.07;;;12.20;98.20;;;;;;5081228;28;20457;-83
2023/06/03 03:47:45;;;;;;;1.47;1.00;;;12.20;98.20;;;;;;5087315;28;20498;-81
2023/06/03 03:50:37;;;;;;;1.43;1.00;;;12.20;98.20;;;;;;5082864;28;20458;-83
2023/06/03 03:53:06;;;;;;;1.50;1.10;;;12.20;98.20;;;;;;5083558;28;20480;-83
2023/06/03 03:55:34;;;;;;;1.50;1.10;;;12.20;98.20;;;;;;5080248;28;20468;-81
2023/06/03 03:58:05;;;;;;;1.43;1.00;;;12.20;98.20;;;;;;5081399;28;20499;-80
2023/06/03 04:00:33;;;;;;;1.50;1.10;;;12.30;98.20;;;;;;5073690;28;20496;-83
2023/06/03 04:03:00;;;;;;;1.43;1.03;;;12.30;98.20;;;;;;5067425;28;20484;-80
2023/06/03 04:05:31;;;;;;;1.50;1.10;;;12.30;98.20;;;;;;5070437;28;20493;-81
2023/06/03 04:07:58;;;;;;;1.47;1.00;;;12.30;98.20;;;;;;5073556;28;20472;-82
2023/06/03 04:10:25;;;;;;;1.47;1.10;;;12.30;98.20;;;;;;5076251;28;20512;-81
2023/06/03 04:12:51;;;;;;;1.47;1.07;;;12.30;98.20;;;;;;5083995;28;20483;-82
2023/06/03 04:15:24;;;;;;;1.50;1.00;;;12.30;98.20;;;;;;5075150;28;20465;-84
2023/06/03 04:17:51;;;;;;;1.47;1.00;;;12.40;98.20;;;;;;5077192;28;20703;-83
2023/06/03 04:20:42;;;;;;;1.50;1.10;;;12.40;98.20;;;;;;5079762;28;20514;-84
2023/06/03 04:23:14;;;;;;;1.40;1.00;;;12.40;98.20;;;;;;5079658;28;20534;-79
2023/06/03 04:25:42;;;;;;;1.47;1.10;;;12.50;98.20;;;;;;5078612;28;20487;-84
2023/06/03 04:28:09;;;;;;;1.50;1.00;;;12.50;98.20;;;;;;5083830;28;20465;-83
2023/06/03 04:30:37;;;;;;;1.47;1.00;;;12.50;97.40;;;;;;5079712;28;20536;-83
2023/06/03 04:33:04;;;;;;;1.50;1.20;;;12.50;98.20;;;;;;5079417;28;20485;-81
2023/06/03 04:35:31;;;;;;;1.50;1.10;;;12.60;97.70;;;;;;5072047;28;20472;-80
2023/06/03 04:37:58;;;;;;;1.50;1.10;;;12.60;96.00;;;;;;5075447;28;20477;-81
2023/06/03 04:40:26;;;;;;;1.50;1.10;;;12.70;96.40;;;;;;5075352;28;20489;-83
2023/06/03 04:42:53;;;;;;;1.50;1.10;;;12.70;95.40;;;;;;5081026;28;20480;-81
2023/06/03 04:45:23;;;;;;;1.50;1.10;;;12.80;95.60;;;;;;5075678;28;20594;-79
2023/06/03 04:47:56;;;;;;;1.47;1.00;;;12.90;96.50;;;;;;5081916;28;20534;-82
2023/06/03 04:50:24;;;;;;;1.43;1.00;;;13.10;95.00;;;;;;5078311;28;20491;-83
2023/06/03 04:52:51;;;;;;;1.47;1.00;;;13.30;95.10;;;;;;5081221;28;21002;-81
2023/06/03 04:55:18;;;;;;;1.47;1.00;;;13.40;95.00;;;;;;5076727;28;20457;-84
2023/06/03 04:57:45;;;;;;;1.50;1.00;;;13.60;93.20;;;;;;5076204;28;20469;-83
2023/06/03 05:00:16;;;;;;;1.50;1.00;;;13.80;92.80;;;;;;5076948;28;20465;-82
2023/06/03 05:02:54;;;;;;;1.50;1.00;;;14.00;92.90;;;;;;5068843;28;21060;-82
2023/06/03 05:05:23;;;;;;;1.43;0.97;;;14.20;92.00;;;;;;5076510;28;20989;-83
2023/06/03 05:07:50;;;;;;;1.47;1.00;;;14.30;91.50;;;;;;5078241;28;20484;-81
2023/06/03 05:10:17;;;;;;;1.47;1.00;;;14.40;90.50;;;;;;5078095;28;20457;-80
2023/06/03 05:12:45;;;;;;;1.50;1.00;;;14.60;90.80;;;;;;5076487;28;20631;-79
2023/06/03 05:15:13;;;;;;;1.47;1.00;;;14.70;87.20;;;;;;5067517;28;20458;-80
2023/06/03 05:17:39;;;;;;;1.50;1.00;;;14.80;89.20;;;;;;5073853;28;20823;-87
2023/06/03 05:20:08;;;;;;;1.47;1.00;;;15.00;87.80;;;;;;5077878;28;20480;-79
2023/06/03 05:22:36;;;;;;;1.50;1.00;;;15.10;88.60;;;;;;5077606;28;20498;-81
2023/06/03 05:25:04;;;;;;;1.43;0.93;;;15.30;84.90;;;;;;5075009;28;20457;-82
2023/06/03 05:27:30;;;;;;;1.50;0.97;;;15.50;85.20;;;;;;5073640;28;20476;-85
2023/06/03 05:29:57;;;;;;;1.50;0.90;;;15.60;86.10;;;;;;5078698;28;20454;-85
2023/06/03 05:32:24;;;;;;;1.47;1.00;;;15.90;85.20;;;;;;5076335;28;20472;-83
2023/06/03 05:34:51;;;;;;;1.50;1.00;;;16.10;83.80;;;;;;5079737;28;20465;-81
2023/06/03 05:37:18;;;;;;;1.47;0.90;;;16.20;81.90;;;;;;5075426;28;20479;-80
2023/06/03 05:39:47;;;;;;;1.50;1.00;;;16.30;82.10;;;;;;5074852;28;20465;-84
2023/06/03 05:42:13;;;;;;;1.50;1.00;;;16.40;82.00;;;;;;5078651;28;20487;-85
2023/06/03 05:44:40;;;;;;;1.50;1.00;;;16.50;81.20;;;;;;5082387;28;20490;-82
2023/06/03 05:47:07;;;;;;;1.40;1.00;;;16.60;80.20;;;;;;5072112;28;21005;-81
2023/06/03 05:49:34;;;;;;;1.50;1.00;;;16.70;78.80;;;;;;5082067;28;20450;-81
2023/06/03 05:52:01;;;;;;;1.43;1.00;;;16.90;79.00;;;;;;5070100;28;20538;-80
2023/06/03 05:54:28;;;;;;;1.50;1.00;;;17.10;76.90;;;;;;5078938;28;20461;-82
2023/06/03 05:56:58;;;;;;;1.40;0.93;;;17.10;76.80;;;;;;5070949;28;20476;-78
2023/06/03 05:59:25;;;;;;;1.47;0.93;;;17.30;77.90;;;;;;5080633;28;20496;-82
2023/06/03 06:01:52;;;;;;;1.40;0.90;;;17.40;78.70;;;;;;5070674;28;20496;-86
2023/06/03 06:04:18;;;;;;;1.47;1.00;;;17.60;77.90;;;;;;5079846;28;20454;-80
2023/06/03 06:06:45;;;;;;;1.50;1.00;;;17.70;76.00;;;;;;5071345;28;20500;-79
2023/06/03 06:09:12;;;;;;;1.50;0.90;;;17.90;76.60;;;;;;5083790;28;20557;-81
2023/06/03 06:11:39;;;;;;;1.50;1.00;;;18.00;74.90;;;;;;5073817;28;20483;-81
2023/06/03 06:14:07;;;;;;;1.50;1.00;;;18.20;74.50;;;;;;5086239;28;20455;-78
2023/06/03 06:16:34;;;;;;;1.50;0.93;;;18.40;74.20;;;;;;5083158;28;20472;-78
2023/06/03 06:19:01;;;;;;;1.47;0.90;;;18.40;71.50;;;;;;5077096;28;20458;-78
2023/06/03 06:21:28;;;;;;;1.40;0.90;;;18.50;72.30;;;;;;5057002;28;20476;-83
2023/06/03 06:23:55;;;;;;;1.47;0.90;;;18.60;73.40;;;;;;5083296;28;20461;-81
2023/06/03 06:26:22;;;;;;;1.50;1.00;;;18.80;73.80;;;;;;5063955;28;21033;-76
2023/06/03 06:28:49;;;;;;;1.47;0.90;;;19.10;71.70;;;;;;5078817;28;20457;-80
2023/06/03 06:31:18;;;;;;;1.47;0.90;;;19.30;71.30;;;;;;5056044;28;20569;-77
2023/06/03 06:33:47;;;;;;;1.47;0.90;;;19.50;70.60;;;;;;5054754;28;21129;-77
2023/06/03 06:36:28;;;;;;;1.50;0.90;;;19.50;70.40;;;;;;5052620;28;20484;-78
2023/06/03 06:38:56;;;;;;;1.50;1.10;;;19.60;69.70;;;;;;5083477;28;20515;-83
2023/06/03 06:41:22;;;;;;;1.50;0.90;;;19.60;70.00;;;;;;5063150;28;20480;-80
2023/06/03 06:43:49;;;;;;;1.50;0.90;;;19.60;69.60;;;;;;5078569;28;20518;-80
2023/06/03 06:46:17;;;;;;;1.50;0.90;;;19.80;70.80;;;;;;5060800;28;20508;-82
2023/06/03 06:48:44;;;;;;;1.43;0.90;;;19.90;68.40;;;;;;5082369;28;20468;-82
2023/06/03 06:51:12;;;;;;;1.50;0.90;;;20.00;69.00;;;;;;5063641;28;20488;-82
2023/06/03 06:53:48;;;;;;;1.50;0.90;;;20.10;68.80;;;;;;5081284;28;20517;-82
2023/06/03 06:56:16;;;;;;;1.47;0.90;;;20.20;67.50;;;;;;5064908;28;21071;-80
2023/06/03 06:58:43;;;;;;;1.50;0.90;;;20.30;68.10;;;;;;5085884;28;20522;-79
2023/06/03 07:01:10;;;;;;;1.50;1.00;;;20.40;67.90;;;;;;5062317;28;20491;-80
2023/06/03 07:03:38;;;;;;;1.50;0.90;;;20.60;68.80;;;;;;5080978;28;20464;-84
2023/06/03 07:06:05;;;;;;;1.43;0.90;;;20.70;68.20;;;;;;5063771;28;20457;-82
2023/06/03 07:08:32;;;;;;;1.50;0.90;;;21.00;68.10;;;;;;5083913;28;20468;-82
2023/06/03 07:11:01;;;;;;;1.47;0.90;;;21.30;67.90;;;;;;5060076;28;21034;-81
2023/06/03 07:13:28;;;;;;;1.47;0.87;;;21.50;68.80;;;;;;5080541;28;20489;-81
2023/06/03 07:15:56;;;;;;;1.50;0.90;;;21.70;67.70;;;;;;5050736;28;20465;-80
2023/06/03 07:18:25;;;;;;;1.43;0.90;;;22.00;65.80;;;;;;5078485;28;20457;-81
2023/06/03 07:20:53;;;;;;;1.50;0.90;;;22.10;67.50;;;;;;5054849;28;20484;-77
2023/06/03 07:23:22;;;;;;;1.47;0.90;;;22.10;66.90;;;;;;5078046;28;20536;-80
2023/06/03 07:25:51;;;;;;;1.50;0.80;;;22.30;67.70;;;;;;5053131;28;20959;-81
2023/06/03 07:28:20;;;;;;;1.47;0.90;;;22.40;65.60;;;;;;5082478;28;20457;-78
2023/06/03 07:30:49;;;;;;;1.50;0.90;;;22.60;66.50;;;;;;5061438;28;21094;-82
2023/06/03 07:33:26;;;;;;;1.47;0.90;;;22.60;64.30;;;;;;5082107;28;20508;-81
2023/06/03 07:35:58;;;;;;;1.47;0.90;;;22.70;65.00;;;;;;5056412;28;20716;-79
2023/06/03 07:38:48;;;;;;;1.47;0.90;;;22.90;64.90;;;;;;5083297;28;20512;-82
2023/06/03 07:41:25;;;;;;;1.50;0.90;;;23.00;63.80;;;;;;5056505;28;20559;-82
2023/06/03 07:43:52;;;;;;;1.47;0.87;;;23.00;63.80;;;;;;5073486;28;20885;-80
2023/06/03 07:46:24;;;;;;;1.47;0.97;;;23.00;64.20;;;;;;5058722;28;20518;-80
2023/06/03 07:48:50;;;;;;;1.47;0.90;;;23.10;64.70;;;;;;5076317;28;20457;-79
2023/06/03 07:51:19;;;;;;;1.47;0.80;;;23.30;64.30;;;;;;5056722;28;20507;-78
2023/06/03 07:53:46;;;;;;;1.50;0.90;;;23.30;63.90;;;;;;5074019;28;20481;-80
2023/06/03 07:56:14;;;;;;;1.47;0.90;;;23.30;62.30;;;;;;5058456;28;20571;-80
2023/06/03 07:58:41;;;;;;;1.50;0.90;;;23.20;63.50;;;;;;5077469;28;20454;-81
2023/06/03 08:01:09;;;;;;;1.47;0.83;;;23.30;62.90;;;;;;5057846;28;20489;-80
2023/06/03 08:03:36;;;;;;;1.47;0.80;;;23.40;65.00;;;;;;5077869;28;20473;-78
2023/06/03 08:06:08;;;;;;;1.50;0.90;;;23.40;63.50;;;;;;5057290;28;20511;-80
2023/06/03 08:08:36;;;;;;;1.47;0.90;;;23.50;64.40;;;;;;5078250;28;20588;-77
2023/06/03 08:11:03;;;;;;;1.40;0.80;;;23.60;63.30;;;;;;5055760;28;20592;-78
2023/06/03 08:13:30;;;;;;;1.50;0.90;;;23.70;63.20;;;;;;5079813;28;20481;-78
2023/06/03 08:15:57;;;;;;;1.50;0.90;;;23.70;62.20;;;;;;5056247;28;20461;-79
2023/06/03 08:18:42;;;;;;;1.50;0.90;;;23.80;63.10;;;;;;5082669;28;20468;-79
2023/06/03 08:21:09;;;;;;;1.40;0.90;;;23.90;62.90;;;;;;5060257;28;20595;-79
2023/06/03 08:23:37;;;;;;;1.50;1.10;;;24.00;62.70;;;;;;5078659;28;20575;-81
2023/06/03 08:26:05;;;;;;;1.50;0.90;;;24.10;63.60;;;;;;5056151;28;20472;-81
2023/06/03 08:28:32;;;;;;;1.50;0.80;;;24.20;62.10;;;;;;5083411;28;20465;-81
2023/06/03 08:30:59;;;;;;;1.43;0.80;;;24.20;62.90;;;;;;5064722;28;21543;-77
2023/06/03 08:33:26;;;;;;;1.50;0.90;;;24.30;63.10;;;;;;5084420;28;20481;-77
2023/06/03 08:35:54;;;;;;;1.50;0.80;;;24.40;62.70;;;;;;5060189;28;20461;-78
2023/06/03 08:38:21;;;;;;;1.47;0.80;;;24.20;62.00;;;;;;5079246;28;21040;-82
2023/06/03 08:40:53;;;;;;;1.50;0.90;;;24.10;62.80;;;;;;5060821;28;20485;-79
2023/06/03 08:43:23;;;;;;;1.80;1.40;;;24.10;63.00;;;;;;5054805;28;20492;-78
2023/06/03 08:45:59;;;;;;;1.40;0.90;;;24.20;63.20;;;;;;5054439;28;20457;-79
2023/06/03 08:48:35;;;;;;;1.40;0.80;;;24.20;63.00;;;;;;5074052;28;20460;-80
2023/06/03 08:51:05;;;;;;;1.40;0.90;;;24.50;62.70;;;;;;5053470;28;20488;-80
2023/06/03 08:53:49;;;;;;;1.50;0.90;;;24.50;63.00;;;;;;5074281;28;20548;-79
2023/06/03 08:56:19;;;;;;;1.50;0.90;;;24.80;62.30;;;;;;5056178;28;20528;-80
2023/06/03 08:58:49;;;;;;;1.50;0.90;;;24.80;61.90;;;;;;5075284;28;21032;-80
2023/06/03 09:01:17;;;;;;;1.50;0.90;;;24.80;61.30;;;;;;5063158;28;20548;-79
2023/06/03 09:03:44;;;;;;;1.43;0.80;;;24.70;61.60;;;;;;5078357;28;20927;-82
2023/06/03 09:06:13;;;;;;;1.47;0.90;;;24.80;63.40;;;;;;5059782;28;20488;-81
2023/06/03 09:08:41;;;;;;;1.40;0.83;;;25.00;62.50;;;;;;5077434;28;21369;-79
2023/06/03 09:11:11;;;;;;;1.40;0.90;;;25.20;62.50;;;;;;5060753;28;20541;-78
2023/06/03 09:13:41;;;;;;;1.40;0.80;;;25.40;61.60;;;;;;5076269;28;20485;-80
2023/06/03 09:16:09;;;;;;;1.47;0.80;;;25.30;61.60;;;;;;5058974;28;20465;-80
2023/06/03 09:18:37;;;;;;;2.30;2.10;;;25.40;61.20;;;;;;5073646;28;20538;-80
2023/06/03 09:21:05;;;;;;;1.40;0.80;;;25.50;62.10;;;;;;5050452;28;21044;-82
2023/06/03 09:23:33;;;;;;;1.43;0.80;;;25.60;61.80;;;;;;5078911;28;21070;-81
2023/06/03 09:26:00;;;;;;;1.50;0.90;;;25.70;61.80;;;;;;5056745;28;20977;-80
2023/06/03 09:28:31;;;;;;;1.50;1.10;;;25.80;61.70;;;;;;5083185;28;21169;-82
2023/06/03 09:31:00;;;;;;;1.40;0.80;;;25.90;61.10;;;;;;5057217;28;20484;-79
2023/06/03 09:33:28;;;;;;;1.40;0.90;;;25.80;59.50;;;;;;5078360;28;20512;-77
2023/06/03 09:36:08;;;;;;;1.43;0.80;;;25.80;60.80;;;;;;5053945;28;20461;-76
2023/06/03 09:38:52;;;;;;;1.50;0.80;;;25.80;60.70;;;;;;5078986;28;20461;-81
2023/06/03 09:41:21;;;;;;;1.47;0.80;;;26.00;61.40;;;;;;5058074;28;20487;-80
2023/06/03 09:43:55;;;;;;;1.40;0.80;;;26.20;60.80;;;;;;5076658;28;20464;-80
2023/06/03 09:46:26;;;;;;;1.50;1.00;;;26.20;60.30;;;;;;5061535;28;20479;-79
2023/06/03 09:48:54;;;;;;;1.40;0.80;;;26.30;59.40;;;;;;5076004;28;20457;-79
2023/06/03 09:51:39;;;;;;;1.40;0.80;;;26.40;59.70;;;;;;5059587;28;20605;-78
2023/06/03 09:54:11;;;;;;;1.43;0.80;;;26.40;59.20;;;;;;5073403;28;20771;-77
2023/06/03 09:56:39;;;;;;;1.47;0.80;;;26.70;59.30;;;;;;5059050;28;20483;-78
2023/06/03 09:59:18;;;;;;;1.47;0.90;;;26.80;59.00;;;;;;5072585;28;20535;-82
2023/06/03 10:01:48;;;;;;;1.47;0.80;;;26.90;58.10;;;;;;5062437;28;20489;-79
2023/06/03 10:04:20;;;;;;;1.43;0.80;;;26.90;58.80;;;;;;5074964;28;20503;-79
2023/06/03 10:06:48;;;;;;;1.40;0.80;;;27.00;59.10;;;;;;5062511;28;20488;-81
2023/06/03 10:09:20;;;;;;;1.47;0.80;;;27.10;61.10;;;;;;5076506;28;20502;-80
2023/06/03 10:11:48;;;;;;;1.47;0.80;;;27.10;58.80;;;;;;5063151;28;20487;-83
2023/06/03 10:14:17;;;;;;;1.43;0.80;;;26.90;59.00;;;;;;5072661;28;20855;-82
2023/06/03 10:17:03;;;;;;;1.43;0.80;;;26.90;59.00;;;;;;5057356;28;20584;-79
2023/06/03 10:19:34;;;;;;;1.40;0.80;;;27.00;58.60;;;;;;5070907;28;20479;-78
2023/06/03 10:22:02;;;;;;;1.43;0.80;;;27.20;60.50;;;;;;5061709;28;20545;-80
2023/06/03 10:24:30;;;;;;;1.43;0.80;;;27.40;59.30;;;;;;5068263;28;20472;-82
2023/06/03 10:26:58;;;;;;;1.47;0.80;;;27.50;60.00;;;;;;5063510;28;20783;-79
2023/06/03 10:29:26;;;;;;;1.43;0.80;;;27.60;58.40;;;;;;5075975;28;20800;-80
2023/06/03 10:31:55;;;;;;;1.43;0.80;;;27.70;57.40;;;;;;5062033;28;20483;-78
2023/06/03 10:34:23;;;;;;;1.50;0.80;;;27.80;57.90;;;;;;5071517;28;20523;-82
2023/06/03 10:37:12;;;;;;;1.43;0.80;;;27.70;60.10;;;;;;5065231;28;20471;-80
2023/06/03 10:39:42;;;;;;;1.43;0.80;;;27.70;59.00;;;;;;5074886;28;20456;-79
2023/06/03 10:42:11;;;;;;;1.40;0.80;;;27.90;58.50;;;;;;5067897;28;20475;-80
2023/06/03 10:44:38;;;;;;;1.40;0.80;;;28.00;58.50;;;;;;5072641;28;20457;-81
2023/06/03 10:47:11;;;;;;;1.43;0.80;;;28.10;57.30;;;;;;5064685;28;20487;-82
2023/06/03 10:49:44;;;;;;;1.50;0.80;;;28.00;57.30;;;;;;5072600;28;20476;-79
2023/06/03 10:52:48;;;;;;;1.40;0.80;;;28.10;57.90;;;;;;5084340;28;20517;-79
2023/06/03 10:55:26;;;;;;;1.50;0.90;;;28.40;57.00;;;;;;5073749;28;20480;-79
2023/06/03 10:57:59;;;;;;;1.50;0.80;;;28.40;56.50;;;;;;5076762;28;20645;-80
2023/06/03 11:00:57;;;;;;;1.40;0.90;;;28.40;57.30;;;;;;5070807;28;20483;-82
2023/06/03 11:03:26;;;;;;;1.47;0.80;;;28.20;56.20;;;;;;5057596;28;21236;-81
2023/06/03 11:05:54;;;;;;;1.47;0.80;;;27.90;56.80;;;;;;5059774;28;20547;-77
2023/06/03 11:09:00;;;;;;;1.43;0.80;;;27.80;58.10;;;;;;5077417;28;20461;-79
2023/06/03 11:11:58;;;;;;;1.50;0.90;;;27.90;58.00;;;;;;5058948;28;20484;-76
2023/06/03 11:14:51;;;;;;;1.40;0.80;;;28.00;59.00;;;;;;5075023;28;21074;-78
2023/06/03 11:17:19;;;;;;;1.43;0.80;;;27.90;57.30;;;;;;5066696;28;20480;-78
2023/06/03 11:19:54;;;;;;;1.50;0.80;;;27.80;58.20;;;;;;5072994;28;20479;-78
2023/06/03 11:22:53;;;;;;;1.40;0.80;;;27.90;58.10;;;;;;5072077;28;20487;-78
2023/06/03 11:25:28;;;;;;;1.43;0.80;;;28.20;58.90;;;;;;5072470;28;20559;-77
2023/06/03 11:28:34;;;;;;;1.40;0.80;;;28.40;57.40;;;;;;5070649;28;20471;-77
2023/06/03 11:31:04;;;;;;;1.43;0.80;;;28.30;56.00;;;;;;5059219;28;20476;-78
2023/06/03 11:33:31;;;;;;;1.40;0.80;;;28.30;56.60;;;;;;5080605;28;20489;-79
2023/06/03 11:35:59;;;;;;;1.40;0.80;;;28.10;57.50;;;;;;5059902;28;20465;-79
2023/06/03 11:38:57;;;;;;;1.40;0.80;;;28.30;57.90;;;;;;5082357;28;20488;-79
2023/06/03 11:41:58;;;;;;;1.40;0.80;;;28.30;57.50;;;;;;5062362;28;20488;-79
2023/06/03 11:44:24;;;;;;;1.43;0.80;;;28.30;57.80;;;;;;5072500;28;20460;-79
2023/06/03 11:46:53;;;;;;;1.40;0.90;;;28.40;58.80;;;;;;5066997;28;20480;-79
2023/06/03 11:49:22;;;;;;;1.47;0.80;;;28.60;56.30;;;;;;5075652;28;20949;-79
2023/06/03 11:51:52;;;;;;;1.47;0.80;;;28.50;58.30;;;;;;5062396;28;21168;-78
2023/06/03 11:54:21;;;;;;;1.40;0.80;;;28.60;57.50;;;;;;5071389;28;20546;-78
2023/06/03 11:56:50;;;;;;;1.40;0.90;;;28.30;56.90;;;;;;5061395;28;20502;-80
2023/06/03 11:59:21;;;;;;;1.47;0.80;;;28.30;58.00;;;;;;5072713;28;20452;-79
2023/06/03 12:01:56;;;;;;;1.47;0.80;;;28.40;57.90;;;;;;5063032;28;20491;-79
2023/06/03 12:04:23;;;;;;;1.47;0.80;;;28.60;58.20;;;;;;5074702;28;20856;-79
2023/06/03 12:06:51;;;;;;;1.47;0.80;;;28.60;57.30;;;;;;5065511;28;20475;-80
2023/06/03 12:09:19;;;;;;;1.80;1.07;;;28.60;58.60;;;;;;5080712;28;20551;-79
2023/06/03 12:11:46;;;;;;;1.47;0.80;;;28.40;57.30;;;;;;5064771;28;20510;-80
2023/06/03 12:14:25;;;;;;;1.40;0.80;;;28.30;57.70;;;;;;5077029;28;20511;-77
2023/06/03 12:16:52;;;;;;;1.47;0.80;;;28.40;57.20;;;;;;5067850;28;20475;-78
2023/06/03 12:19:19;;;;;;;1.40;0.80;;;28.40;57.90;;;;;;5079627;28;20483;-78
2023/06/03 12:21:57;;;;;;;2.53;1.93;;;28.40;58.00;;;;;;5067880;28;20498;-77
2023/06/03 12:24:30;;;;;;;1.40;0.80;;;28.40;57.20;;;;;;5083290;28;20547;-78
2023/06/03 12:26:58;;;;;;;1.40;0.80;;;28.40;56.90;;;;;;5071212;28;20479;-78
2023/06/03 12:29:27;;;;;;;1.47;0.80;;;28.30;57.90;;;;;;5078296;28;20460;-76
2023/06/03 12:32:00;;;;;;;2.13;1.83;;;28.30;57.20;;;;;;5065861;28;20578;-80
2023/06/03 12:34:33;;;;;;;1.40;0.80;;;28.20;57.20;;;;;;5075031;28;20542;-79
2023/06/03 12:37:02;;;;;;;1.40;0.80;;;28.00;58.20;;;;;;5069772;28;20529;-77
2023/06/03 12:39:48;;;;;;;1.90;1.40;;;28.00;57.70;;;;;;5077373;28;20472;-80
2023/06/03 12:42:15;;;;;;;1.43;0.80;;;28.00;57.60;;;;;;5071707;28;20506;-77
2023/06/03 12:44:53;;;;;;;1.47;0.80;;;28.00;58.10;;;;;;5074842;28;20460;-76
2023/06/03 12:47:21;;;;;;;1.47;0.80;;;28.00;57.50;;;;;;5070091;28;20483;-77
2023/06/03 12:50:04;;;;;;;1.50;0.90;;;27.90;58.30;;;;;;5071275;28;20807;-78
2023/06/03 12:52:34;;;;;;;1.40;0.80;;;28.00;58.20;;;;;;5068991;28;20533;-77
2023/06/03 12:55:03;;;;;;;1.40;0.80;;;28.00;57.10;;;;;;5067927;28;20561;-78
2023/06/03 12:57:30;;;;;;;1.40;0.80;;;28.10;58.20;;;;;;5069996;28;20993;-81
2023/06/03 13:00:07;;;;;;;1.40;0.80;;;28.00;55.90;;;;;;5070744;28;20461;-78
2023/06/03 13:02:34;;;;;;;1.50;0.90;;;28.00;56.50;;;;;;5068033;28;20575;-80
2023/06/03 13:05:01;;;;;;;1.43;0.90;;;28.10;58.30;;;;;;5069492;28;20461;-75